createdAt,value
2016-12-20T00:00:19.203Z,12.46
2016-12-20T00:01:19.183Z,13.31
2016-12-20T00:02:19.163Z,13.12
2016-12-20T00:03:19.145Z,12.37
2016-12-20T00:04:19.127Z,12.37
2016-12-20T00:05:19.108Z,12.65
2016-12-20T00:06:19.092Z,12.37
2016-12-20T00:07:19.075Z,12.65
2016-12-20T00:08:19.054Z,12.27
2016-12-20T00:09:19.035Z,12.65
2016-12-20T00:10:19.016Z,11.99
2016-12-20T00:11:18.996Z,11.04
2016-12-20T00:12:18.978Z,11.23
2016-12-20T00:13:18.962Z,11.14
2016-12-20T00:14:18.941Z,10.95
2016-12-20T00:15:18.925Z,11.04
2016-12-20T00:16:18.903Z,11.14
2016-12-20T00:17:18.886Z,11.9
2016-12-20T00:18:18.868Z,12.65
2016-12-20T00:19:18.853Z,14.25
2016-12-20T00:20:18.831Z,15.77
2016-12-20T00:21:18.812Z,14.73
2016-12-20T00:22:18.793Z,13.97
2016-12-20T00:23:18.775Z,13.87
2016-12-20T00:24:18.754Z,14.16
2016-12-20T00:25:18.734Z,14.63
2016-12-20T00:26:18.717Z,14.82
2016-12-20T00:27:18.698Z,14.92
2016-12-20T00:28:18.681Z,15.29
2016-12-20T00:29:18.667Z,14.06
2016-12-20T00:30:18.643Z,14.35
2016-12-20T00:31:18.625Z,14.25
2016-12-20T00:32:18.606Z,14.25
2016-12-20T00:33:18.587Z,14.25
2016-12-20T00:34:18.569Z,14.35
2016-12-20T00:35:18.548Z,14.25
2016-12-20T00:36:18.534Z,13.78
2016-12-20T00:37:18.513Z,13.78
2016-12-20T00:38:18.494Z,14.54
2016-12-20T00:39:18.477Z,15.67
2016-12-20T00:40:18.459Z,16.14
2016-12-20T00:41:18.443Z,16.33
2016-12-20T00:42:18.420Z,16.05
2016-12-20T00:43:18.403Z,16.61
2016-12-20T00:44:18.382Z,17.37
2016-12-20T00:45:18.363Z,18.69
2016-12-20T00:46:18.344Z,19.91
2016-12-20T00:47:18.327Z,21.04
2016-12-20T00:48:18.321Z,21.51
2016-12-20T00:49:18.291Z,22.08
2016-12-20T00:50:18.270Z,21.61
2016-12-20T00:51:18.253Z,19.53
2016-12-20T00:52:18.231Z,19.25
2016-12-20T00:53:18.212Z,19.25
2016-12-20T00:54:18.198Z,19.43
2016-12-20T00:55:18.176Z,19.81
2016-12-20T00:56:18.158Z,21.33
2016-12-20T00:57:18.137Z,22.27
2016-12-20T00:58:18.120Z,23.68
2016-12-20T00:59:18.102Z,23.97
2016-12-20T01:00:18.088Z,24.16
2016-12-20T01:01:18.066Z,23.97
2016-12-20T01:02:18.045Z,23.78
2016-12-20T01:03:18.031Z,23.68
2016-12-20T01:04:18.006Z,23.59
2016-12-20T01:05:17.990Z,24.91
2016-12-20T01:06:17.972Z,26.51
2016-12-20T01:07:17.952Z,27.46
2016-12-20T01:08:17.932Z,28.78
2016-12-20T01:09:17.917Z,30.1
2016-12-20T01:10:17.896Z,29.82
2016-12-20T01:11:17.876Z,30.47
2016-12-20T01:12:17.857Z,30
2016-12-20T01:13:17.839Z,29.91
2016-12-20T01:14:17.820Z,29.82
2016-12-20T01:15:17.803Z,28.97
2016-12-20T01:16:17.782Z,29.53
2016-12-20T01:17:17.767Z,29.72
2016-12-20T01:18:17.747Z,30.1
2016-12-20T01:19:17.726Z,29.35
2016-12-20T01:20:17.708Z,28.59
2016-12-20T01:21:17.690Z,27.25
2016-12-20T01:22:17.667Z,25.76
2016-12-20T01:23:17.649Z,25.09
2016-12-20T01:24:17.632Z,25.56
2016-12-20T01:25:17.620Z,26.59
2016-12-20T01:26:17.595Z,27.44
2016-12-20T01:27:17.574Z,27.25
2016-12-20T01:28:17.555Z,27.44
2016-12-20T01:29:17.534Z,27.07
2016-12-20T01:30:17.516Z,27.44
2016-12-20T01:31:17.498Z,24.9
2016-12-20T01:32:17.480Z,24.05
2016-12-20T01:33:17.460Z,23.86
2016-12-20T01:34:17.437Z,24.9
2016-12-20T01:35:17.423Z,25.84
2016-12-20T01:36:17.400Z,25.74
2016-12-20T01:37:17.384Z,24.99
2016-12-20T01:38:17.363Z,25.37
2016-12-20T01:39:17.347Z,25.46
2016-12-20T01:40:17.323Z,26.03
2016-12-20T01:41:17.306Z,25.84
2016-12-20T01:42:17.287Z,25.74
2016-12-20T01:43:17.266Z,24.9
2016-12-20T01:44:17.246Z,24.43
2016-12-20T01:45:17.231Z,24.8
2016-12-20T01:46:17.210Z,24.9
2016-12-20T01:47:17.189Z,26.4
2016-12-20T01:48:17.168Z,27.25
2016-12-20T01:49:17.151Z,27.25
2016-12-20T01:50:17.133Z,27.16
2016-12-20T01:51:17.114Z,26.59
2016-12-20T01:52:17.095Z,26.59
2016-12-20T01:53:17.074Z,26.31
2016-12-20T01:54:17.053Z,26.59
2016-12-20T01:55:17.033Z,26.5
2016-12-20T01:56:17.018Z,26.59
2016-12-20T01:57:16.994Z,25.74
2016-12-20T01:58:16.977Z,25.93
2016-12-20T01:59:16.961Z,24.62
2016-12-20T02:00:16.938Z,23.67
2016-12-20T02:01:16.922Z,22.63
2016-12-20T02:02:16.901Z,21.69
2016-12-20T02:03:16.885Z,21.59
2016-12-20T02:04:16.869Z,21.59
2016-12-20T02:05:17.133Z,22.07
2016-12-20T02:06:16.820Z,22.25
2016-12-20T02:07:16.803Z,22.73
2016-12-20T02:08:16.785Z,22.25
2016-12-20T02:09:16.768Z,21.88
2016-12-20T02:10:16.742Z,22.16
2016-12-20T02:11:16.725Z,22.25
2016-12-20T02:12:16.705Z,22.25
2016-12-20T02:13:16.691Z,22.54
2016-12-20T02:14:16.667Z,23.39
2016-12-20T02:15:16.646Z,22.82
2016-12-20T02:16:16.627Z,23.01
2016-12-20T02:17:16.608Z,22.25
2016-12-20T02:18:16.589Z,22.07
2016-12-20T02:19:16.571Z,22.25
2016-12-20T02:20:16.549Z,22.35
2016-12-20T02:21:16.532Z,22.25
2016-12-20T02:22:16.511Z,21.88
2016-12-20T02:23:16.491Z,22.63
2016-12-20T02:24:16.477Z,23.01
2016-12-20T02:25:16.455Z,23.39
2016-12-20T02:26:16.433Z,23.01
2016-12-20T02:27:16.416Z,23.86
2016-12-20T02:28:16.397Z,23.11
2016-12-20T02:29:16.375Z,22.92
2016-12-20T02:30:16.356Z,22.82
2016-12-20T02:31:16.336Z,22.63
2016-12-20T02:32:16.315Z,23.67
2016-12-20T02:33:16.295Z,23.86
2016-12-20T02:34:16.275Z,24.24
2016-12-20T02:35:16.258Z,25.27
2016-12-20T02:36:16.240Z,25.46
2016-12-20T02:37:16.220Z,25.93
2016-12-20T02:38:16.203Z,26.31
2016-12-20T02:39:16.180Z,25.74
2016-12-20T02:40:16.161Z,25.65
2016-12-20T02:41:16.140Z,25.46
2016-12-20T02:42:16.120Z,25.74
2016-12-20T02:43:16.100Z,26.4
2016-12-20T02:44:16.081Z,26.5
2016-12-20T02:45:16.063Z,26.59
2016-12-20T02:46:16.041Z,25.84
2016-12-20T02:47:16.021Z,25.84
2016-12-20T02:48:16.009Z,25.65
2016-12-20T02:49:15.986Z,24.71
2016-12-20T02:50:15.962Z,25.27
2016-12-20T02:51:15.944Z,26.21
2016-12-20T02:52:15.928Z,26.69
2016-12-20T02:53:15.907Z,26.59
2016-12-20T02:54:15.886Z,26.5
2016-12-20T02:55:15.865Z,26.5
2016-12-20T02:56:15.850Z,25.93
2016-12-20T02:57:15.828Z,25.93
2016-12-20T02:58:15.809Z,26.03
2016-12-20T02:59:15.790Z,26.5
2016-12-20T03:00:15.770Z,26.03
2016-12-20T03:01:15.751Z,25.84
2016-12-20T03:02:15.730Z,26.5
2016-12-20T03:03:15.710Z,26.4
2016-12-20T03:04:15.694Z,25.37
2016-12-20T03:05:15.672Z,24.8
2016-12-20T03:06:15.654Z,24.05
2016-12-20T03:07:15.632Z,24.24
2016-12-20T03:08:15.611Z,24.99
2016-12-20T03:09:15.591Z,24.8
2016-12-20T03:10:15.572Z,24.99
2016-12-20T03:11:15.560Z,24.8
2016-12-20T03:12:15.532Z,21.5
2016-12-20T03:13:15.515Z,20.84
2016-12-20T03:14:15.494Z,20.65
2016-12-20T03:15:15.473Z,20.75
2016-12-20T03:16:15.452Z,20.84
2016-12-20T03:17:15.433Z,21.31
2016-12-20T03:18:15.416Z,21.97
2016-12-20T03:19:15.394Z,21.69
2016-12-20T03:20:15.408Z,21.41
2016-12-20T03:21:15.356Z,21.59
2016-12-20T03:22:15.338Z,21.59
2016-12-20T03:23:15.316Z,22.16
2016-12-20T03:24:15.297Z,22.16
2016-12-20T03:25:15.279Z,22.54
2016-12-20T03:26:15.259Z,22.73
2016-12-20T03:27:15.240Z,22.35
2016-12-20T03:28:15.220Z,22.92
2016-12-20T03:29:15.201Z,23.29
2016-12-20T03:30:15.179Z,22.82
2016-12-20T03:31:15.160Z,22.35
2016-12-20T03:32:15.141Z,22.82
2016-12-20T03:33:15.121Z,23.77
2016-12-20T03:34:15.100Z,23.86
2016-12-20T03:35:15.082Z,23.67
2016-12-20T03:36:15.092Z,23.86
2016-12-20T03:37:15.046Z,24.05
2016-12-20T03:38:15.024Z,24.05
2016-12-20T03:39:15.004Z,23.86
2016-12-20T03:40:14.983Z,24.33
2016-12-20T03:41:14.963Z,24.9
2016-12-20T03:42:14.942Z,24.8
2016-12-20T03:43:14.924Z,24.43
2016-12-20T03:44:14.905Z,24.99
2016-12-20T03:45:14.882Z,26.69
2016-12-20T03:46:14.872Z,26.59
2016-12-20T03:47:14.850Z,26.59
2016-12-20T03:48:14.825Z,25.74
2016-12-20T03:49:14.805Z,25.37
2016-12-20T03:50:14.789Z,26.03
2016-12-20T03:51:14.767Z,27.44
2016-12-20T03:52:14.745Z,28.11
2016-12-20T03:53:14.728Z,28.48
2016-12-20T03:54:14.707Z,28.39
2016-12-20T03:55:14.689Z,28.58
2016-12-20T03:56:14.667Z,28.77
2016-12-20T03:57:14.647Z,28.67
2016-12-20T03:58:14.629Z,28.48
2016-12-20T03:59:14.610Z,28.11
2016-12-20T04:00:14.593Z,27.25
2016-12-20T04:01:14.568Z,26.69
2016-12-20T04:02:14.549Z,27.44
2016-12-20T04:03:14.530Z,27.16
2016-12-20T04:04:14.511Z,25.46
2016-12-20T04:05:14.490Z,25.27
2016-12-20T04:06:14.474Z,24.9
2016-12-20T04:07:14.450Z,24.71
2016-12-20T04:08:14.433Z,24.33
2016-12-20T04:09:14.412Z,23.67
2016-12-20T04:10:14.391Z,23.48
2016-12-20T04:11:14.371Z,23.77
2016-12-20T04:12:14.353Z,24.52
2016-12-20T04:13:14.333Z,24.52
2016-12-20T04:14:14.313Z,25.27
2016-12-20T04:15:14.294Z,25.27
2016-12-20T04:16:14.273Z,25.56
2016-12-20T04:17:14.258Z,24.8
2016-12-20T04:18:14.233Z,24.8
2016-12-20T04:19:14.213Z,24.8
2016-12-20T04:20:14.194Z,22.92
2016-12-20T04:21:14.173Z,22.44
2016-12-20T04:22:14.154Z,23.11
2016-12-20T04:23:14.134Z,23.39
2016-12-20T04:24:14.113Z,23.86
2016-12-20T04:25:14.096Z,24.99
2016-12-20T04:26:14.074Z,25.65
2016-12-20T04:27:14.054Z,25.65
2016-12-20T04:28:14.036Z,26.59
2016-12-20T04:29:14.015Z,26.88
2016-12-20T04:30:13.995Z,27.35
2016-12-20T04:31:13.979Z,27.63
2016-12-20T04:32:13.958Z,27.35
2016-12-20T04:33:13.937Z,27.16
2016-12-20T04:34:13.919Z,26.5
2016-12-20T04:35:13.896Z,25.37
2016-12-20T04:36:13.879Z,24.99
2016-12-20T04:37:13.856Z,25.56
2016-12-20T04:38:13.866Z,24.8
2016-12-20T04:39:13.819Z,23.11
2016-12-20T04:40:13.797Z,22.35
2016-12-20T04:41:13.779Z,23.29
2016-12-20T04:42:13.760Z,23.77
2016-12-20T04:43:13.739Z,24.05
2016-12-20T04:44:13.719Z,23.01
2016-12-20T04:45:13.698Z,23.39
2016-12-20T04:46:13.680Z,22.44
2016-12-20T04:47:13.655Z,22.25
2016-12-20T04:48:13.638Z,23.39
2016-12-20T04:49:13.618Z,23.58
2016-12-20T04:50:13.599Z,24.33
2016-12-20T04:51:13.577Z,23.77
2016-12-20T04:52:13.560Z,23.86
2016-12-20T04:53:13.544Z,24.52
2016-12-20T04:54:13.515Z,25.84
2016-12-20T04:55:13.502Z,27.35
2016-12-20T04:56:13.480Z,28.29
2016-12-20T04:57:13.459Z,28.58
2016-12-20T04:58:13.754Z,28.86
2016-12-20T04:59:13.423Z,28.48
2016-12-20T05:00:13.400Z,28.11
2016-12-20T05:01:13.695Z,28.2
2016-12-20T05:02:13.360Z,29.33
2016-12-20T05:03:13.341Z,29.99
2016-12-20T05:04:13.323Z,30.46
2016-12-20T05:05:13.298Z,30.46
2016-12-20T05:06:13.284Z,29.99
2016-12-20T05:07:13.259Z,29.52
2016-12-20T05:08:13.245Z,28.48
2016-12-20T05:09:13.221Z,28.01
2016-12-20T05:10:13.204Z,27.63
2016-12-20T05:11:13.182Z,27.35
2016-12-20T05:12:13.170Z,28.01
2016-12-20T05:13:13.142Z,27.92
2016-12-20T05:14:13.123Z,26.88
2016-12-20T05:15:13.104Z,25.46
2016-12-20T05:16:13.082Z,25.56
2016-12-20T05:17:13.062Z,26.12
2016-12-20T05:18:13.043Z,26.59
2016-12-20T05:19:13.022Z,27.25
2016-12-20T05:20:13.002Z,27.54
2016-12-20T05:21:12.984Z,27.44
2016-12-20T05:22:12.967Z,28.2
2016-12-20T05:23:12.945Z,28.77
2016-12-20T05:24:12.923Z,29.8
2016-12-20T05:25:12.902Z,31.21
2016-12-20T05:26:12.885Z,31.78
2016-12-20T05:27:12.864Z,32.44
2016-12-20T05:28:12.847Z,32.44
2016-12-20T05:29:12.823Z,32.71
2016-12-20T05:30:12.804Z,32.8
2016-12-20T05:31:12.786Z,33.18
2016-12-20T05:32:12.766Z,33.94
2016-12-20T05:33:12.743Z,34.88
2016-12-20T05:34:12.723Z,35.06
2016-12-20T05:35:12.705Z,35.16
2016-12-20T05:36:12.687Z,35.63
2016-12-20T05:37:12.663Z,35.53
2016-12-20T05:38:12.644Z,36.29
2016-12-20T05:39:12.624Z,36.57
2016-12-20T05:40:12.607Z,35.63
2016-12-20T05:41:12.584Z,35.82
2016-12-20T05:42:12.564Z,35.35
2016-12-20T05:43:12.543Z,35.16
2016-12-20T05:44:12.527Z,34.88
2016-12-20T05:45:12.504Z,34.69
2016-12-20T05:46:12.485Z,34.59
2016-12-20T05:47:12.464Z,34.78
2016-12-20T05:48:12.444Z,33.65
2016-12-20T05:49:12.426Z,32.43
2016-12-20T05:50:12.406Z,32.43
2016-12-20T05:51:12.386Z,32.52
2016-12-20T05:52:12.364Z,32.62
2016-12-20T05:53:12.343Z,32.52
2016-12-20T05:54:12.328Z,32.43
2016-12-20T05:55:12.304Z,32.24
2016-12-20T05:56:12.286Z,33.09
2016-12-20T05:57:12.263Z,32.52
2016-12-20T05:58:12.245Z,32.99
2016-12-20T05:59:12.228Z,33.56
2016-12-20T06:00:12.228Z,32.9
2016-12-20T06:01:12.497Z,32.43
2016-12-20T06:02:12.164Z,32.33
2016-12-20T06:03:12.146Z,32.99
2016-12-20T06:04:12.127Z,34.03
2016-12-20T06:05:12.104Z,34.03
2016-12-20T06:06:12.084Z,34.97
2016-12-20T06:07:12.065Z,35.44
2016-12-20T06:08:12.043Z,35.16
2016-12-20T06:09:12.021Z,34.78
2016-12-20T06:10:12.004Z,33.47
2016-12-20T06:11:11.984Z,32.71
2016-12-20T06:12:11.963Z,32.24
2016-12-20T06:13:11.942Z,31.48
2016-12-20T06:14:11.922Z,31.77
2016-12-20T06:15:11.904Z,30.73
2016-12-20T06:16:11.882Z,31.1
2016-12-20T06:17:11.862Z,31.77
2016-12-20T06:18:11.843Z,32.33
2016-12-20T06:19:11.821Z,32.52
2016-12-20T06:20:11.804Z,32.33
2016-12-20T06:21:11.781Z,31.67
2016-12-20T06:22:11.761Z,30.92
2016-12-20T06:23:11.743Z,30.63
2016-12-20T06:24:11.721Z,29.97
2016-12-20T06:25:11.703Z,30.07
2016-12-20T06:26:11.682Z,29.6
2016-12-20T06:27:11.661Z,30.07
2016-12-20T06:28:11.641Z,30.82
2016-12-20T06:29:11.619Z,29.79
2016-12-20T06:30:11.602Z,30.44
2016-12-20T06:31:11.581Z,28.85
2016-12-20T06:32:11.560Z,28.85
2016-12-20T06:33:11.539Z,29.5
2016-12-20T06:34:11.518Z,28.85
2016-12-20T06:35:11.501Z,28.56
2016-12-20T06:36:11.482Z,28.38
2016-12-20T06:37:11.460Z,27.81
2016-12-20T06:38:11.439Z,28.19
2016-12-20T06:39:11.420Z,28.28
2016-12-20T06:40:11.399Z,28.47
2016-12-20T06:41:11.380Z,28.38
2016-12-20T06:42:11.361Z,28.47
2016-12-20T06:43:11.338Z,28.75
2016-12-20T06:44:11.325Z,29.79
2016-12-20T06:45:11.298Z,31.58
2016-12-20T06:46:11.281Z,33.56
2016-12-20T06:47:11.260Z,34.78
2016-12-20T06:48:11.238Z,35.72
2016-12-20T06:49:11.217Z,36.1
2016-12-20T06:50:11.204Z,36.48
2016-12-20T06:51:11.178Z,36.01
2016-12-20T06:52:11.158Z,36.2
2016-12-20T06:53:11.171Z,36.48
2016-12-20T06:54:11.116Z,36.1
2016-12-20T06:55:11.095Z,35.44
2016-12-20T06:56:11.077Z,34.03
2016-12-20T06:57:11.056Z,32.8
2016-12-20T06:58:11.036Z,32.52
2016-12-20T06:59:11.015Z,32.52
2016-12-20T07:00:10.998Z,32.05
2016-12-20T07:01:10.978Z,31.77
2016-12-20T07:02:10.971Z,32.14
2016-12-20T07:03:10.936Z,31.39
2016-12-20T07:04:10.916Z,31.67
2016-12-20T07:05:10.897Z,30.73
2016-12-20T07:06:10.876Z,30.82
2016-12-20T07:07:10.854Z,29.97
2016-12-20T07:08:10.836Z,29.97
2016-12-20T07:09:10.814Z,29.97
2016-12-20T07:10:10.793Z,29.79
2016-12-20T07:11:10.775Z,29.6
2016-12-20T07:12:10.754Z,28.85
2016-12-20T07:13:10.731Z,28.38
2016-12-20T07:14:10.716Z,28.19
2016-12-20T07:15:10.692Z,28.09
2016-12-20T07:16:10.672Z,28.38
2016-12-20T07:17:10.651Z,28.75
2016-12-20T07:18:10.633Z,28.28
2016-12-20T07:19:10.623Z,28.28
2016-12-20T07:20:10.592Z,28.09
2016-12-20T07:21:10.572Z,27.53
2016-12-20T07:22:10.553Z,27.24
2016-12-20T07:23:10.535Z,27.62
2016-12-20T07:24:10.510Z,27.43
2016-12-20T07:25:10.491Z,27.05
2016-12-20T07:26:10.474Z,26.96
2016-12-20T07:27:10.451Z,27.43
2016-12-20T07:28:10.430Z,27.62
2016-12-20T07:29:10.411Z,27.62
2016-12-20T07:30:10.393Z,26.58
2016-12-20T07:31:10.369Z,26.86
2016-12-20T07:32:10.349Z,27.15
2016-12-20T07:33:10.328Z,27.53
2016-12-20T07:34:10.308Z,27.43
2016-12-20T07:35:10.290Z,27.05
2016-12-20T07:36:10.270Z,26.49
2016-12-20T07:37:10.249Z,26.31
2016-12-20T07:38:10.227Z,25.74
2016-12-20T07:39:10.210Z,26.03
2016-12-20T07:40:10.186Z,26.03
2016-12-20T07:41:10.169Z,25.56
2016-12-20T07:42:10.146Z,25.46
2016-12-20T07:43:10.126Z,25.74
2016-12-20T07:44:10.106Z,26.21
2016-12-20T07:45:10.089Z,26.69
2016-12-20T07:46:10.068Z,26.97
2016-12-20T07:47:10.046Z,27.25
2016-12-20T07:48:10.025Z,26.97
2016-12-20T07:49:10.008Z,27.07
2016-12-20T07:50:09.987Z,27.35
2016-12-20T07:51:09.967Z,28.58
2016-12-20T07:52:09.947Z,28.96
2016-12-20T07:53:09.924Z,28.86
2016-12-20T07:54:09.905Z,29.14
2016-12-20T07:55:09.889Z,28.67
2016-12-20T07:56:09.865Z,28.01
2016-12-20T07:57:09.846Z,28.2
2016-12-20T07:58:09.826Z,28.11
2016-12-20T07:59:09.806Z,28.11
2016-12-20T08:00:09.787Z,27.44
2016-12-20T08:01:09.776Z,27.82
2016-12-20T08:02:09.747Z,28.39
2016-12-20T08:03:09.725Z,28.11
2016-12-20T08:04:09.704Z,28.11
2016-12-20T08:05:09.686Z,27.35
2016-12-20T08:06:09.668Z,26.88
2016-12-20T08:07:09.644Z,26.97
2016-12-20T08:08:09.625Z,26.88
2016-12-20T08:09:09.606Z,27.07
2016-12-20T08:10:09.590Z,26.88
2016-12-20T08:11:09.566Z,26.69
2016-12-20T08:12:09.546Z,26.78
2016-12-20T08:13:09.527Z,26.69
2016-12-20T08:14:09.508Z,25.84
2016-12-20T08:15:09.486Z,25.65
2016-12-20T08:16:09.465Z,25.65
2016-12-20T08:17:09.446Z,25.84
2016-12-20T08:18:09.427Z,25.37
2016-12-20T08:19:09.410Z,25.65
2016-12-20T08:20:09.389Z,25.37
2016-12-20T08:21:09.370Z,25.09
2016-12-20T08:22:09.348Z,24.8
2016-12-20T08:23:09.326Z,25.09
2016-12-20T08:24:09.308Z,24.71
2016-12-20T08:25:09.287Z,24.8
2016-12-20T08:26:09.269Z,24.62
2016-12-20T08:27:09.249Z,24.43
2016-12-20T08:28:09.231Z,24.33
2016-12-20T08:29:09.213Z,24.52
2016-12-20T08:30:09.190Z,24.43
2016-12-20T08:31:09.169Z,23.96
2016-12-20T08:32:09.150Z,23.67
2016-12-20T08:33:09.134Z,23.86
2016-12-20T08:34:09.113Z,23.29
2016-12-20T08:35:09.093Z,22.44
2016-12-20T08:36:09.071Z,22.44
2016-12-20T08:37:09.053Z,23.11
2016-12-20T08:38:09.033Z,23.01
2016-12-20T08:39:09.015Z,22.44
2016-12-20T08:40:08.993Z,22.07
2016-12-20T08:41:08.974Z,21.78
2016-12-20T08:42:08.957Z,22.07
2016-12-20T08:43:08.935Z,22.16
2016-12-20T08:44:08.916Z,22.16
2016-12-20T08:45:08.894Z,22.44
2016-12-20T08:46:08.879Z,22.25
2016-12-20T08:47:08.857Z,22.63
2016-12-20T08:48:08.838Z,22.82
2016-12-20T08:49:08.816Z,22.73
2016-12-20T08:50:08.799Z,21.5
2016-12-20T08:51:08.780Z,21.12
2016-12-20T08:52:08.757Z,21.22
2016-12-20T08:53:08.740Z,21.31
2016-12-20T08:54:08.721Z,21.22
2016-12-20T08:55:08.703Z,20
2016-12-20T08:56:08.682Z,19.9
2016-12-20T08:57:08.663Z,20.09
2016-12-20T08:58:08.642Z,20.56
2016-12-20T08:59:08.624Z,21.12
2016-12-20T09:00:08.615Z,21.31
2016-12-20T09:01:08.587Z,21.88
2016-12-20T09:02:08.566Z,21.33
2016-12-20T09:03:08.549Z,21.41
2016-12-20T09:04:08.538Z,21.42
2016-12-20T09:05:08.509Z,21.51
2016-12-20T09:06:08.488Z,21.14
2016-12-20T09:07:08.470Z,21.04
2016-12-20T09:08:08.450Z,20.76
2016-12-20T09:09:08.432Z,20.76
2016-12-20T09:10:08.410Z,21.14
2016-12-20T09:11:08.394Z,20.85
2016-12-20T09:12:08.374Z,21.23
2016-12-20T09:13:08.354Z,21.23
2016-12-20T09:14:08.333Z,19.91
2016-12-20T09:15:08.317Z,19.15
2016-12-20T09:16:08.299Z,18.49
2016-12-20T09:17:08.278Z,18.96
2016-12-20T09:18:08.257Z,18.87
2016-12-20T09:19:08.239Z,19.43
2016-12-20T09:20:08.218Z,19.43
2016-12-20T09:21:08.208Z,19.81
2016-12-20T09:22:08.183Z,19.91
2016-12-20T09:23:08.163Z,20.29
2016-12-20T09:24:08.148Z,19.72
2016-12-20T09:25:08.123Z,18.49
2016-12-20T09:26:08.106Z,17.46
2016-12-20T09:27:08.085Z,16.61
2016-12-20T09:28:08.080Z,16.32
2016-12-20T09:29:08.049Z,15
2016-12-20T09:30:08.029Z,15.19
2016-12-20T09:31:08.014Z,15.09
2016-12-20T09:32:07.990Z,14.62
2016-12-20T09:33:07.971Z,14.72
2016-12-20T09:34:07.963Z,15.09
2016-12-20T09:35:07.935Z,15
2016-12-20T09:36:07.913Z,14.9
2016-12-20T09:37:07.894Z,15.57
2016-12-20T09:38:07.880Z,16.13
2016-12-20T09:39:07.857Z,16.32
2016-12-20T09:40:07.838Z,17.36
2016-12-20T09:41:07.825Z,18.49
2016-12-20T09:42:07.803Z,18.77
2016-12-20T09:43:07.784Z,20.1
2016-12-20T09:44:07.763Z,21.23
2016-12-20T09:45:07.745Z,21.33
2016-12-20T09:46:07.727Z,21.42
2016-12-20T09:47:07.706Z,21.42
2016-12-20T09:48:07.689Z,21.42
2016-12-20T09:49:07.669Z,20.1
2016-12-20T09:50:07.651Z,18.77
2016-12-20T09:51:07.635Z,17.37
2016-12-20T09:52:07.613Z,16.14
2016-12-20T09:53:07.597Z,15.67
2016-12-20T09:54:07.575Z,14.92
2016-12-20T09:55:07.558Z,14.82
2016-12-20T09:56:07.541Z,15.48
2016-12-20T09:57:07.521Z,16.42
2016-12-20T09:58:07.500Z,17.18
2016-12-20T09:59:07.483Z,17.46
2016-12-20T10:00:07.465Z,18.03
2016-12-20T10:01:07.460Z,18.03
2016-12-20T10:02:07.426Z,17.37
2016-12-20T10:03:07.410Z,17.65
2016-12-20T10:04:07.391Z,18.5
2016-12-20T10:05:07.371Z,17.94
2016-12-20T10:06:07.351Z,18.31
2016-12-20T10:07:07.336Z,19.54
2016-12-20T10:08:07.319Z,19.64
2016-12-20T10:09:07.296Z,20.2
2016-12-20T10:10:07.277Z,20.01
2016-12-20T10:11:07.262Z,19.92
2016-12-20T10:12:07.242Z,21.62
2016-12-20T10:13:07.221Z,21.62
2016-12-20T10:14:07.205Z,21.62
2016-12-20T10:15:07.186Z,21.33
2016-12-20T10:16:07.168Z,21.05
2016-12-20T10:17:07.153Z,19.73
2016-12-20T10:18:07.134Z,20.1
2016-12-20T10:19:07.116Z,22.19
2016-12-20T10:20:07.095Z,23.14
2016-12-20T10:21:07.075Z,26.34
2016-12-20T10:22:07.059Z,24.07
2016-12-20T10:23:07.043Z,23.99
2016-12-20T10:24:07.337Z,25.41
2016-12-20T10:25:07.002Z,23.61
2016-12-20T10:26:06.985Z,23.9
2016-12-20T10:27:06.966Z,25.5
2016-12-20T10:28:06.947Z,24.08
2016-12-20T10:29:06.932Z,23.99
2016-12-20T10:30:06.913Z,24.18
2016-12-20T10:31:06.896Z,23.9
2016-12-20T10:32:06.875Z,23.52
2016-12-20T10:33:06.860Z,24.08
2016-12-20T10:34:06.842Z,23.9
2016-12-20T10:35:06.821Z,23.99
2016-12-20T10:36:06.805Z,27.01
2016-12-20T10:37:06.786Z,28.05
2016-12-20T10:38:06.768Z,27.48
2016-12-20T10:39:06.754Z,27.58
2016-12-20T10:40:06.732Z,28.62
2016-12-20T10:41:06.713Z,26.45
2016-12-20T10:42:06.695Z,26.82
2016-12-20T10:43:06.680Z,26.64
2016-12-20T10:44:06.663Z,29.94
2016-12-20T10:45:06.961Z,32.68
2016-12-20T10:46:06.626Z,30.98
2016-12-20T10:47:06.605Z,31.17
2016-12-20T10:48:06.589Z,32.59
2016-12-20T10:49:06.571Z,39.86
2016-12-20T10:50:06.554Z,38.82
2016-12-20T10:51:06.538Z,37.69
2016-12-20T10:52:06.525Z,36.18
2016-12-20T10:53:06.502Z,32.59
2016-12-20T10:54:06.484Z,32.59
2016-12-20T10:55:06.465Z,31.55
2016-12-20T10:56:06.445Z,31.74
2016-12-20T10:57:06.430Z,32.87
2016-12-20T10:58:06.412Z,34.1
2016-12-20T10:59:06.395Z,36.27
2016-12-20T11:00:06.375Z,39.59
2016-12-20T11:01:06.358Z,41.66
2016-12-20T11:02:06.341Z,41.09
2016-12-20T11:03:06.322Z,41.3
2016-12-20T11:04:06.305Z,42.15
2016-12-20T11:05:06.325Z,43.66
2016-12-20T11:06:06.273Z,46.12
2016-12-20T11:07:06.258Z,43.57
2016-12-20T11:08:06.235Z,42.71
2016-12-20T11:09:06.218Z,43.19
2016-12-20T11:10:06.202Z,41.49
2016-12-20T11:11:06.183Z,42.81
2016-12-20T11:12:06.166Z,43.76
2016-12-20T11:13:06.150Z,43.85
2016-12-20T11:14:06.129Z,44.6
2016-12-20T11:15:06.117Z,45.45
2016-12-20T11:16:06.096Z,46.12
2016-12-20T11:17:06.081Z,46.69
2016-12-20T11:18:06.083Z,46.4
2016-12-20T11:19:06.044Z,47.34
2016-12-20T11:20:06.026Z,46.4
2016-12-20T11:21:06.009Z,46.97
2016-12-20T11:22:05.992Z,46.21
2016-12-20T11:23:05.974Z,45.64
2016-12-20T11:24:05.960Z,46.5
2016-12-20T11:25:05.941Z,46.69
2016-12-20T11:26:05.923Z,47.06
2016-12-20T11:27:05.906Z,46.02
2016-12-20T11:28:05.890Z,47.44
2016-12-20T11:29:05.872Z,47.16
2016-12-20T11:30:05.853Z,47.34
2016-12-20T11:31:05.836Z,48.48
2016-12-20T11:32:05.818Z,49.62
2016-12-20T11:33:05.804Z,50.46
2016-12-20T11:34:06.098Z,50.94
2016-12-20T11:35:05.768Z,51.98
2016-12-20T11:36:05.748Z,52.17
2016-12-20T11:37:05.733Z,51.6
2016-12-20T11:38:05.719Z,52.17
2016-12-20T11:39:05.701Z,52.92
2016-12-20T11:40:05.679Z,53.87
2016-12-20T11:41:05.669Z,53.87
2016-12-20T11:42:05.648Z,54.15
2016-12-20T11:43:05.631Z,55.29
2016-12-20T11:44:05.612Z,55
2016-12-20T11:45:05.600Z,54.91
2016-12-20T11:46:05.579Z,54.15
2016-12-20T11:47:05.561Z,55.76
2016-12-20T11:48:05.543Z,57.37
2016-12-20T11:49:05.527Z,58.12
2016-12-20T11:50:05.511Z,58.78
2016-12-20T11:51:05.489Z,58.31
2016-12-20T11:52:05.474Z,58.4
2016-12-20T11:53:05.459Z,59.25
2016-12-20T11:54:05.439Z,63.6
2016-12-20T11:55:05.424Z,63.98
2016-12-20T11:56:05.404Z,64.26
2016-12-20T11:57:05.388Z,63.6
2016-12-20T11:58:05.373Z,64.07
2016-12-20T11:59:05.353Z,66.44
2016-12-20T12:00:05.336Z,67
2016-12-20T12:01:05.636Z,67
2016-12-20T12:02:05.302Z,65.97
2016-12-20T12:03:05.289Z,64.54
2016-12-20T12:04:05.268Z,63.42
2016-12-20T12:05:05.253Z,63.79
2016-12-20T12:06:05.236Z,64.54
2016-12-20T12:07:05.219Z,64.26
2016-12-20T12:08:05.200Z,62.94
2016-12-20T12:09:05.182Z,63.6
2016-12-20T12:10:05.168Z,64.26
2016-12-20T12:11:05.150Z,63.6
2016-12-20T12:12:05.131Z,63.23
2016-12-20T12:13:05.116Z,64.07
2016-12-20T12:14:05.097Z,63.98
2016-12-20T12:15:05.083Z,63.79
2016-12-20T12:16:05.064Z,65.97
2016-12-20T12:17:05.047Z,66.35
2016-12-20T12:18:05.031Z,67
2016-12-20T12:19:05.012Z,67.29
2016-12-20T12:20:04.996Z,67.89
2016-12-20T12:21:04.978Z,68.8
2016-12-20T12:22:04.964Z,69.56
2016-12-20T12:23:04.946Z,69.97
2016-12-20T12:24:04.929Z,72.24
2016-12-20T12:25:04.912Z,72.33
2016-12-20T12:26:04.895Z,72.62
2016-12-20T12:27:04.877Z,73.75
2016-12-20T12:28:04.867Z,76.12
2016-12-20T12:29:04.845Z,77.31
2016-12-20T12:30:04.832Z,77.12
2016-12-20T12:31:04.811Z,76.5
2016-12-20T12:32:04.793Z,76.5
2016-12-20T12:33:04.779Z,76.87
2016-12-20T12:34:04.761Z,81.27
2016-12-20T12:35:04.746Z,81.56
2016-12-20T12:36:04.728Z,83.87
2016-12-20T12:37:04.712Z,83.87
2016-12-20T12:38:04.692Z,82.35
2016-12-20T12:39:04.675Z,80.46
2016-12-20T12:40:04.660Z,79.61
2016-12-20T12:41:04.644Z,77.72
2016-12-20T12:42:04.628Z,77.4
2016-12-20T12:43:04.610Z,76.21
2016-12-20T12:44:04.592Z,76.68
2016-12-20T12:45:04.576Z,75.93
2016-12-20T12:46:04.561Z,76.21
2016-12-20T12:47:04.540Z,75.93
2016-12-20T12:48:04.525Z,75.04
2016-12-20T12:49:04.507Z,76.78
2016-12-20T12:50:04.492Z,76.07
2016-12-20T12:51:04.474Z,75.64
2016-12-20T12:52:04.456Z,75.64
2016-12-20T12:53:04.440Z,74.19
2016-12-20T12:54:04.423Z,72.58
2016-12-20T12:55:04.404Z,70.88